Carnival Liberty — HPYE — position and weather

sailwx.info

Track history (hours):
 
Tides and Currents Weather Stations Pressure Air Temp Water Temp Dewpoint Dewpoint Depression Visibility Wind Speed Wind Dir Waves Ship Positions

Carnival Liberty

Last reported at 2015-Aug-05 01:26 UTC. Time now 2015-Aug-05 10:21 UTC.
Position N 14°08' W 060°39'.

Type: Ship. MMSI: 371083000.

Date/timePositionNaut miles runAvg speedWind from/ knotsBaromVisibWave heightAir tempDewpointWater temp
2015-Aug-05 01:26N 14°08' W 060°39'7 8.3
2015-Aug-05 00:33N 14°12' W 060°45'9 8.7
2015-Aug-04 23:33N 14°13' W 060°54'9 9.3
2015-Aug-04 22:33N 14°14' W 061°03'10 9.6
2015-Aug-04 21:33N 14°15' W 061°13'9 8.7
2015-Aug-04 20:33N 14°21' W 061°20'9 8.9
2015-Aug-04 19:33N 14°28' W 061°26'9 8.8
2015-Aug-04 18:34N 14°35' W 061°31'10 9.7
2015-Aug-04 17:33N 14°43' W 061°37'1010.0
2015-Aug-04 16:33N 14°51' W 061°44'23914.6
2015-Aug-04 00:12N 17°55' W 064°22'1015.8
2015-Aug-03 23:33N 17°59' W 064°32'1615.7
2015-Aug-03 22:33N 18°07' W 064°47'14 1.1
2015-Aug-03 10:15N 18°16' W 064°57'38 1.0
2015-Aug-01 21:31N 17°38' W 064°59'25711.6
2015-Jul-31 23:19N 14°56' W 061°31'1317.6
2015-Jul-31 22:33N 14°46' W 061°21'1616.2
2015-Jul-31 21:33N 14°36' W 061°09'4 4.2
2015-Jul-31 20:32N 14°36' W 061°04'0 0.0
2015-Jul-31 19:32N 14°36' W 061°04'0 0.0
2015-Jul-31 18:31N 14°36' W 061°04'0 0.0
2015-Jul-31 17:31N 14°36' W 061°04'0 0.0
2015-Jul-31 16:33N 14°36' W 061°04'0 0.0
2015-Jul-31 15:33N 14°36' W 061°04'0 0.0
2015-Jul-31 14:32N 14°36' W 061°04'0 0.0
2015-Jul-31 13:32N 14°36' W 061°04'0 0.0
2015-Jul-31 12:29N 14°36' W 061°04'0 0.0
2015-Jul-31 11:33N 14°36' W 061°04'5 5.0
2015-Jul-31 10:33N 14°37' W 061°09'9 8.9
2015-Jul-31 09:33N 14°42' W 061°17'9 9.0
2015-Jul-31 08:33N 14°48' W 061°24'11 9.3
2015-Jul-31 07:24N 14°55' W 061°32'8312.0
2015-Jul-31 00:30N 16°12' W 062°05'1617.0
2015-Jul-30 23:33N 16°28' W 062°04'1716.9
2015-Jul-30 22:34N 16°45' W 062°02'1716.5
2015-Jul-30 21:33N 17°01' W 062°01'1110.6
2015-Jul-30 20:34N 17°08' W 061°52'1 1.4
2015-Jul-30 19:33N 17°07' W 061°51'0 0.0
2015-Jul-30 18:32N 17°07' W 061°51'0 0.0
2015-Jul-30 17:32N 17°07' W 061°51'0 0.0
2015-Jul-30 16:31N 17°07' W 061°51'0 0.0
2015-Jul-30 15:31N 17°07' W 061°51'0 0.0
2015-Jul-30 14:31N 17°07' W 061°51'0 0.0
2015-Jul-30 13:33N 17°07' W 061°51'0 0.0
2015-Jul-30 12:33N 17°07' W 061°51'1 0.6
2015-Jul-30 11:33N 17°07' W 061°51'8 8.0
2015-Jul-30 10:34N 17°12' W 061°58'10 9.6
2015-Jul-30 09:33N 17°19' W 062°05'9 9.2
2015-Jul-30 08:34N 17°27' W 062°10'9 9.3
2015-Jul-30 07:34N 17°35' W 062°15'9 9.3
2015-Jul-30 06:34N 17°43' W 062°20'30 8.8
2015-Jul-30 03:06N 17°41' W 062°52'5 9.0
2015-Jul-30 02:32N 17°43' W 062°57'9 9.0
2015-Jul-30 01:33N 17°50' W 063°02'10 9.6
2015-Jul-30 00:33N 17°59' W 063°06'4 3.4
2015-Jul-29 23:27N 18°01' W 063°03'0 0.0
2015-Jul-29 22:14N 18°01' W 063°03'0 0.0
2015-Jul-29 20:19N 18°01' W 063°03'0 0.0
2015-Jul-29 16:06N 18°01' W 063°03'0 0.1
2015-Jul-29 15:33N 18°01' W 063°03'9 9.2
2015-Jul-29 14:33N 18°01' W 063°12'1413.3
2015-Jul-29 13:32N 18°00' W 063°27'1414.9
2015-Jul-29 12:33N 17°58' W 063°42'  
2015-Jul-26 03:33N 18°10' W 064°54'  
Track history (hours):
 
Tides and Currents Weather Stations Pressure Air Temp Water Temp Dewpoint Dewpoint Depression Visibility Wind Speed Wind Dir Waves Ship Positions

Carnival Liberty

Last reported at 2015-Aug-05 01:26 UTC. Time now 2015-Aug-05 10:21 UTC.
Position N 14°08' W 060°39'.

Type: Ship. MMSI: 371083000.

Date/timePositionNaut miles runAvg speedWind from/ knotsBaromVisibWave heightAir tempDewpointWater temp
2015-Aug-05 01:26N 14°08' W 060°39'7 8.3
2015-Aug-05 00:33N 14°12' W 060°45'9 8.7
2015-Aug-04 23:33N 14°13' W 060°54'9 9.3
2015-Aug-04 22:33N 14°14' W 061°03'10 9.6
2015-Aug-04 21:33N 14°15' W 061°13'9 8.7
2015-Aug-04 20:33N 14°21' W 061°20'9 8.9
2015-Aug-04 19:33N 14°28' W 061°26'9 8.8
2015-Aug-04 18:34N 14°35' W 061°31'10 9.7
2015-Aug-04 17:33N 14°43' W 061°37'1010.0
2015-Aug-04 16:33N 14°51' W 061°44'23914.6
2015-Aug-04 00:12N 17°55' W 064°22'1015.8
2015-Aug-03 23:33N 17°59' W 064°32'1615.7
2015-Aug-03 22:33N 18°07' W 064°47'14 1.1
2015-Aug-03 10:15N 18°16' W 064°57'38 1.0
2015-Aug-01 21:31N 17°38' W 064°59'25711.6
2015-Jul-31 23:19N 14°56' W 061°31'1317.6
2015-Jul-31 22:33N 14°46' W 061°21'1616.2
2015-Jul-31 21:33N 14°36' W 061°09'4 4.2
2015-Jul-31 20:32N 14°36' W 061°04'0 0.0
2015-Jul-31 19:32N 14°36' W 061°04'0 0.0
2015-Jul-31 18:31N 14°36' W 061°04'0 0.0
2015-Jul-31 17:31N 14°36' W 061°04'0 0.0
2015-Jul-31 16:33N 14°36' W 061°04'0 0.0
2015-Jul-31 15:33N 14°36' W 061°04'0 0.0
2015-Jul-31 14:32N 14°36' W 061°04'0 0.0
2015-Jul-31 13:32N 14°36' W 061°04'0 0.0
2015-Jul-31 12:29N 14°36' W 061°04'0 0.0
2015-Jul-31 11:33N 14°36' W 061°04'5 5.0
2015-Jul-31 10:33N 14°37' W 061°09'9 8.9
2015-Jul-31 09:33N 14°42' W 061°17'9 9.0
2015-Jul-31 08:33N 14°48' W 061°24'11 9.3
2015-Jul-31 07:24N 14°55' W 061°32'8312.0
2015-Jul-31 00:30N 16°12' W 062°05'1617.0
2015-Jul-30 23:33N 16°28' W 062°04'1716.9
2015-Jul-30 22:34N 16°45' W 062°02'1716.5
2015-Jul-30 21:33N 17°01' W 062°01'1110.6
2015-Jul-30 20:34N 17°08' W 061°52'1 1.4
2015-Jul-30 19:33N 17°07' W 061°51'0 0.0
2015-Jul-30 18:32N 17°07' W 061°51'0 0.0
2015-Jul-30 17:32N 17°07' W 061°51'0 0.0
2015-Jul-30 16:31N 17°07' W 061°51'0 0.0
2015-Jul-30 15:31N 17°07' W 061°51'0 0.0
2015-Jul-30 14:31N 17°07' W 061°51'0 0.0
2015-Jul-30 13:33N 17°07' W 061°51'0 0.0
2015-Jul-30 12:33N 17°07' W 061°51'1 0.6
2015-Jul-30 11:33N 17°07' W 061°51'8 8.0
2015-Jul-30 10:34N 17°12' W 061°58'10 9.6
2015-Jul-30 09:33N 17°19' W 062°05'9 9.2
2015-Jul-30 08:34N 17°27' W 062°10'9 9.3
2015-Jul-30 07:34N 17°35' W 062°15'9 9.3
2015-Jul-30 06:34N 17°43' W 062°20'30 8.8
2015-Jul-30 03:06N 17°41' W 062°52'5 9.0
2015-Jul-30 02:32N 17°43' W 062°57'9 9.0
2015-Jul-30 01:33N 17°50' W 063°02'10 9.6
2015-Jul-30 00:33N 17°59' W 063°06'4 3.4
2015-Jul-29 23:27N 18°01' W 063°03'0 0.0
2015-Jul-29 22:14N 18°01' W 063°03'0 0.0
2015-Jul-29 20:19N 18°01' W 063°03'0 0.0
2015-Jul-29 16:06N 18°01' W 063°03'0 0.1
2015-Jul-29 15:33N 18°01' W 063°03'9 9.2
2015-Jul-29 14:33N 18°01' W 063°12'1413.3
2015-Jul-29 13:32N 18°00' W 063°27'1414.9
2015-Jul-29 12:33N 17°58' W 063°42'  
2015-Jul-26 03:33N 18°10' W 064°54'  

Dump ship's entire track history